createdAt,value
2018-06-27T00:00:29.323Z,12.67
2018-06-27T00:01:29.225Z,12.66
2018-06-27T00:02:29.164Z,12.71
2018-06-27T00:03:29.078Z,12.63
2018-06-27T00:04:29.014Z,12.67
2018-06-27T00:05:28.931Z,12.70
2018-06-27T00:06:28.863Z,12.69
2018-06-27T00:07:28.778Z,12.74
2018-06-27T00:08:28.710Z,12.79
2018-06-27T00:09:28.625Z,12.88
2018-06-27T00:10:28.570Z,12.84
2018-06-27T00:11:28.470Z,12.84
2018-06-27T00:12:28.414Z,12.85
2018-06-27T00:13:28.322Z,12.85
2018-06-27T00:14:28.255Z,12.84
2018-06-27T00:15:28.173Z,12.89
2018-06-27T00:16:28.105Z,12.82
2018-06-27T00:17:28.021Z,12.84
2018-06-27T00:18:27.951Z,12.86
2018-06-27T00:19:27.954Z,12.82
2018-06-27T00:20:27.802Z,12.79
2018-06-27T00:21:27.719Z,12.74
2018-06-27T00:22:27.650Z,12.69
2018-06-27T00:23:27.566Z,12.66
2018-06-27T00:24:27.501Z,12.45
2018-06-27T00:25:27.418Z,12.49
2018-06-27T00:26:27.345Z,12.37
2018-06-27T00:27:27.265Z,12.30
2018-06-27T00:28:27.199Z,12.26
2018-06-27T00:29:27.112Z,12.16
2018-06-27T00:30:27.052Z,12.12
2018-06-27T00:31:26.963Z,12.12
2018-06-27T00:32:26.894Z,12.16
2018-06-27T00:33:26.814Z,12.11
2018-06-27T00:34:26.736Z,12.09
2018-06-27T00:35:26.659Z,12.13
2018-06-27T00:36:26.590Z,12.11
2018-06-27T00:37:26.508Z,12.15
2018-06-27T00:38:26.440Z,12.16
2018-06-27T00:39:26.353Z,12.26
2018-06-27T00:40:26.287Z,12.26
2018-06-27T00:41:26.203Z,12.26
2018-06-27T00:42:26.132Z,12.42
2018-06-27T00:43:26.051Z,12.48
2018-06-27T00:44:25.986Z,12.56
2018-06-27T00:45:25.894Z,12.52
2018-06-27T00:46:25.839Z,12.59
2018-06-27T00:47:25.750Z,12.55
2018-06-27T00:48:25.678Z,12.59
2018-06-27T00:49:25.591Z,12.56
2018-06-27T00:50:25.526Z,12.56
2018-06-27T00:51:25.444Z,12.53
2018-06-27T00:52:25.372Z,12.60
2018-06-27T00:53:25.291Z,12.59
2018-06-27T00:54:25.227Z,12.52
2018-06-27T00:55:25.197Z,12.42
2018-06-27T00:56:25.072Z,12.44
2018-06-27T00:57:24.991Z,12.27
2018-06-27T00:58:24.918Z,12.30
2018-06-27T00:59:24.835Z,12.28
2018-06-27T01:00:24.766Z,12.15
2018-06-27T01:01:24.680Z,12.16
2018-06-27T01:02:24.623Z,12.12
2018-06-27T01:03:24.531Z,12.24
2018-06-27T01:04:24.465Z,12.12
2018-06-27T01:05:24.381Z,12.13
2018-06-27T01:06:24.312Z,11.98
2018-06-27T01:07:24.231Z,12.00
2018-06-27T01:08:24.157Z,11.94
2018-06-27T01:09:24.079Z,11.90
2018-06-27T01:10:24.005Z,11.84
2018-06-27T01:11:23.923Z,11.86
2018-06-27T01:12:23.873Z,11.94
2018-06-27T01:13:23.770Z,11.87
2018-06-27T01:14:23.699Z,11.87
2018-06-27T01:15:23.619Z,11.75
2018-06-27T01:16:23.551Z,11.75
2018-06-27T01:17:23.464Z,11.75
2018-06-27T01:18:23.394Z,11.74
2018-06-27T01:19:23.313Z,11.72
2018-06-27T01:20:23.246Z,11.60
2018-06-27T01:21:23.162Z,11.50
2018-06-27T01:22:23.092Z,11.49
2018-06-27T01:23:23.011Z,11.49
2018-06-27T01:24:22.940Z,11.54
2018-06-27T01:25:22.856Z,11.43
2018-06-27T01:26:22.790Z,11.41
2018-06-27T01:27:22.703Z,11.51
2018-06-27T01:28:22.636Z,11.53
2018-06-27T01:29:22.547Z,11.43
2018-06-27T01:30:22.486Z,11.49
2018-06-27T01:31:22.397Z,11.47
2018-06-27T01:32:22.327Z,11.38
2018-06-27T01:33:22.244Z,11.41
2018-06-27T01:34:22.178Z,11.39
2018-06-27T01:35:22.092Z,11.32
2018-06-27T01:36:22.023Z,11.34
2018-06-27T01:37:21.943Z,11.32
2018-06-27T01:38:21.867Z,11.31
2018-06-27T01:39:21.784Z,11.23
2018-06-27T01:40:21.717Z,11.24
2018-06-27T01:41:21.632Z,11.21
2018-06-27T01:42:21.565Z,11.20
2018-06-27T01:43:21.481Z,11.14
2018-06-27T01:44:21.412Z,11.08
2018-06-27T01:45:21.335Z,11.14
2018-06-27T01:46:21.260Z,11.10
2018-06-27T01:47:21.181Z,11.16
2018-06-27T01:48:21.107Z,11.10
2018-06-27T01:49:21.023Z,11.24
2018-06-27T01:50:20.957Z,11.28
2018-06-27T01:51:20.872Z,11.32
2018-06-27T01:52:20.806Z,11.18
2018-06-27T01:53:20.719Z,11.18
2018-06-27T01:54:20.647Z,11.17
2018-06-27T01:55:20.564Z,11.11
2018-06-27T01:56:20.500Z,11.16
2018-06-27T01:57:20.405Z,11.14
2018-06-27T01:58:20.340Z,11.17
2018-06-27T01:59:20.258Z,11.10
2018-06-27T02:00:20.189Z,11.11
2018-06-27T02:01:20.105Z,11.17
2018-06-27T02:02:20.036Z,11.18
2018-06-27T02:03:19.951Z,11.28
2018-06-27T02:04:19.883Z,11.20
2018-06-27T02:05:19.804Z,11.31
2018-06-27T02:06:20.405Z,11.34
2018-06-27T02:07:19.648Z,11.38
2018-06-27T02:08:19.578Z,11.38
2018-06-27T02:09:19.491Z,11.42
2018-06-27T02:10:19.427Z,11.41
2018-06-27T02:11:19.337Z,11.49
2018-06-27T02:12:19.272Z,11.61
2018-06-27T02:13:19.184Z,11.57
2018-06-27T02:14:19.116Z,11.53
2018-06-27T02:15:19.032Z,11.57
2018-06-27T02:16:18.964Z,11.53
2018-06-27T02:17:18.877Z,11.56
2018-06-27T02:18:18.808Z,11.43
2018-06-27T02:19:18.729Z,11.49
2018-06-27T02:20:18.660Z,11.42
2018-06-27T02:21:18.572Z,11.41
2018-06-27T02:22:18.511Z,11.36
2018-06-27T02:23:18.416Z,11.36
2018-06-27T02:24:18.351Z,11.38
2018-06-27T02:25:18.269Z,11.36
2018-06-27T02:26:18.197Z,11.31
2018-06-27T02:27:18.112Z,11.39
2018-06-27T02:28:18.044Z,11.41
2018-06-27T02:29:17.959Z,11.43
2018-06-27T02:30:17.893Z,11.42
2018-06-27T02:31:17.808Z,11.46
2018-06-27T02:32:17.746Z,11.61
2018-06-27T02:33:17.652Z,11.64
2018-06-27T02:34:17.585Z,11.67
2018-06-27T02:35:17.502Z,11.75
2018-06-27T02:36:17.427Z,11.65
2018-06-27T02:37:17.353Z,11.69
2018-06-27T02:38:17.277Z,11.74
2018-06-27T02:39:17.196Z,11.76
2018-06-27T02:40:17.125Z,11.74
2018-06-27T02:41:17.040Z,11.74
2018-06-27T02:42:16.970Z,11.61
2018-06-27T02:43:16.889Z,11.59
2018-06-27T02:44:16.819Z,11.64
2018-06-27T02:45:16.738Z,11.60
2018-06-27T02:46:16.664Z,11.56
2018-06-27T02:47:16.582Z,11.59
2018-06-27T02:48:16.517Z,11.59
2018-06-27T02:49:16.433Z,11.49
2018-06-27T02:50:16.362Z,11.49
2018-06-27T02:51:16.275Z,11.46
2018-06-27T02:52:16.206Z,11.42
2018-06-27T02:53:16.125Z,11.46
2018-06-27T02:54:16.051Z,11.42
2018-06-27T02:55:15.969Z,11.49
2018-06-27T02:56:15.912Z,11.50
2018-06-27T02:57:15.819Z,11.59
2018-06-27T02:58:15.747Z,11.69
2018-06-27T02:59:15.664Z,11.54
2018-06-27T03:00:15.592Z,11.60
2018-06-27T03:01:15.510Z,11.50
2018-06-27T03:02:15.443Z,11.49
2018-06-27T03:03:15.356Z,11.43
2018-06-27T03:04:15.288Z,11.54
2018-06-27T03:05:15.202Z,11.46
2018-06-27T03:06:15.140Z,11.49
2018-06-27T03:07:15.049Z,11.57
2018-06-27T03:08:14.982Z,11.56
2018-06-27T03:09:14.903Z,11.64
2018-06-27T03:10:14.828Z,11.61
2018-06-27T03:11:14.762Z,11.64
2018-06-27T03:12:14.676Z,11.65
2018-06-27T03:13:14.588Z,11.60
2018-06-27T03:14:14.520Z,11.68
2018-06-27T03:15:14.440Z,11.71
2018-06-27T03:16:14.362Z,11.72
2018-06-27T03:17:14.282Z,11.65
2018-06-27T03:18:14.216Z,11.74
2018-06-27T03:19:14.129Z,11.72
2018-06-27T03:20:14.119Z,11.76
2018-06-27T03:21:13.976Z,11.72
2018-06-27T03:22:13.912Z,11.69
2018-06-27T03:23:13.822Z,11.78
2018-06-27T03:24:13.758Z,11.75
2018-06-27T03:25:13.670Z,11.69
2018-06-27T03:26:13.599Z,11.69
2018-06-27T03:27:13.518Z,11.86
2018-06-27T03:28:13.446Z,11.86
2018-06-27T03:29:13.363Z,11.94
2018-06-27T03:30:13.299Z,11.86
2018-06-27T03:31:13.219Z,11.94
2018-06-27T03:32:13.141Z,11.95
2018-06-27T03:33:13.056Z,11.95
2018-06-27T03:34:12.990Z,12.09
2018-06-27T03:35:12.905Z,12.05
2018-06-27T03:36:12.838Z,12.06
2018-06-27T03:37:12.750Z,12.09
2018-06-27T03:38:12.681Z,12.13
2018-06-27T03:39:12.598Z,12.16
2018-06-27T03:40:12.530Z,12.12
2018-06-27T03:41:12.448Z,12.18
2018-06-27T03:42:12.377Z,12.18
2018-06-27T03:43:12.297Z,12.27
2018-06-27T03:44:12.220Z,12.34
2018-06-27T03:45:12.141Z,12.33
2018-06-27T03:46:12.073Z,12.44
2018-06-27T03:47:11.995Z,12.44
2018-06-27T03:48:11.922Z,12.48
2018-06-27T03:49:11.832Z,12.45
2018-06-27T03:50:11.765Z,12.49
2018-06-27T03:51:11.681Z,12.48
2018-06-27T03:52:11.624Z,12.56
2018-06-27T03:53:11.526Z,12.61
2018-06-27T03:54:11.468Z,12.59
2018-06-27T03:55:11.381Z,12.55
2018-06-27T03:56:11.382Z,12.55
2018-06-27T03:57:11.222Z,12.61
2018-06-27T03:58:11.188Z,12.55
2018-06-27T03:59:11.070Z,12.56
2018-06-27T04:00:11.101Z,12.61
2018-06-27T04:01:10.915Z,12.60
2018-06-27T04:02:10.907Z,12.61
2018-06-27T04:03:10.765Z,12.56
2018-06-27T04:04:10.720Z,12.67
2018-06-27T04:05:10.611Z,12.73
2018-06-27T04:06:10.632Z,12.66
2018-06-27T04:07:10.460Z,12.64
2018-06-27T04:08:10.391Z,12.66
2018-06-27T04:09:10.306Z,12.70
2018-06-27T04:10:10.348Z,12.67
2018-06-27T04:11:10.153Z,12.79
2018-06-27T04:12:10.085Z,12.78
2018-06-27T04:13:10.072Z,12.81
2018-06-27T04:14:09.931Z,12.74
2018-06-27T04:15:09.854Z,12.85
2018-06-27T04:16:09.874Z,12.84
2018-06-27T04:17:09.697Z,12.85
2018-06-27T04:18:09.684Z,12.92
2018-06-27T04:19:09.542Z,12.97
2018-06-27T04:20:09.502Z,12.97
2018-06-27T04:21:09.390Z,12.97
2018-06-27T04:22:09.321Z,13.00
2018-06-27T04:23:09.238Z,13.04
2018-06-27T04:24:09.168Z,13.04
2018-06-27T04:25:09.082Z,13.02
2018-06-27T04:26:09.118Z,13.00
2018-06-27T04:27:08.935Z,13.11
2018-06-27T04:28:08.931Z,13.14
2018-06-27T04:29:08.782Z,13.15
2018-06-27T04:30:08.721Z,13.17
2018-06-27T04:31:08.630Z,13.19
2018-06-27T04:32:08.571Z,13.22
2018-06-27T04:33:08.479Z,13.11
2018-06-27T04:34:08.409Z,13.22
2018-06-27T04:35:08.326Z,13.18
2018-06-27T04:36:08.274Z,13.25
2018-06-27T04:37:08.173Z,13.33
2018-06-27T04:38:08.175Z,13.36
2018-06-27T04:39:08.021Z,13.32
2018-06-27T04:40:07.952Z,13.33
2018-06-27T04:41:07.869Z,13.36
2018-06-27T04:42:07.901Z,13.40
2018-06-27T04:43:07.753Z,13.44
2018-06-27T04:44:07.704Z,13.47
2018-06-27T04:45:07.567Z,13.48
2018-06-27T04:46:07.515Z,13.52
2018-06-27T04:47:07.414Z,13.44
2018-06-27T04:48:07.423Z,13.53
2018-06-27T04:49:07.263Z,13.45
2018-06-27T04:50:07.188Z,13.62
2018-06-27T04:51:07.110Z,13.66
2018-06-27T04:52:07.043Z,13.76
2018-06-27T04:53:06.960Z,13.70
2018-06-27T04:54:06.887Z,13.70
2018-06-27T04:55:06.806Z,13.66
2018-06-27T04:56:06.736Z,13.74
2018-06-27T04:57:06.651Z,13.77
2018-06-27T04:58:06.674Z,13.77
2018-06-27T04:59:06.503Z,13.86
2018-06-27T05:00:06.482Z,13.83
2018-06-27T05:01:06.351Z,13.83
2018-06-27T05:02:06.281Z,13.84
2018-06-27T05:03:06.197Z,13.84
2018-06-27T05:04:06.207Z,13.92
2018-06-27T05:05:06.047Z,13.95
2018-06-27T05:06:06.014Z,13.98
2018-06-27T05:07:05.895Z,14.03
2018-06-27T05:08:05.826Z,14.03
2018-06-27T05:09:05.742Z,14.11
2018-06-27T05:10:05.729Z,14.16
2018-06-27T05:11:05.590Z,14.29
2018-06-27T05:12:10.962Z,14.32
2018-06-27T05:13:05.438Z,14.35
2018-06-27T05:14:05.370Z,14.41
2018-06-27T05:15:05.289Z,14.35
2018-06-27T05:16:05.306Z,14.46
2018-06-27T05:17:05.136Z,14.38
2018-06-27T05:18:05.072Z,14.47
2018-06-27T05:19:04.987Z,14.50
2018-06-27T05:20:04.977Z,14.53
2018-06-27T05:21:04.837Z,14.57
2018-06-27T05:22:04.787Z,14.67
2018-06-27T05:23:04.686Z,14.67
2018-06-27T05:24:04.697Z,14.74
2018-06-27T05:25:04.534Z,14.71
2018-06-27T05:26:04.508Z,14.85
2018-06-27T05:27:04.381Z,14.80
2018-06-27T05:28:04.417Z,14.87
2018-06-27T05:29:04.233Z,14.84
2018-06-27T05:30:04.228Z,14.95
2018-06-27T05:31:04.076Z,15.02
2018-06-27T05:32:04.034Z,15.08
2018-06-27T05:33:03.932Z,15.15
2018-06-27T05:34:03.949Z,15.26
2018-06-27T05:35:03.779Z,15.30
2018-06-27T05:36:03.753Z,15.38
2018-06-27T05:37:03.627Z,15.39
2018-06-27T05:38:03.665Z,15.49
2018-06-27T05:39:03.479Z,15.53
2018-06-27T05:40:03.476Z,15.51
2018-06-27T05:41:03.327Z,15.57
2018-06-27T05:42:03.283Z,15.60
2018-06-27T05:43:03.180Z,15.75
2018-06-27T05:44:03.192Z,15.81
2018-06-27T05:45:03.029Z,15.85
2018-06-27T05:46:03.004Z,15.89
2018-06-27T05:47:02.882Z,15.97
2018-06-27T05:48:02.912Z,16.07
2018-06-27T05:49:02.729Z,16.07
2018-06-27T05:50:02.722Z,16.16
2018-06-27T05:51:02.586Z,16.10
2018-06-27T05:52:02.530Z,16.18
2018-06-27T05:53:02.424Z,16.16
2018-06-27T05:54:02.439Z,16.20
2018-06-27T05:55:02.276Z,16.20
2018-06-27T05:56:02.248Z,16.25
2018-06-27T05:57:02.129Z,16.23
2018-06-27T05:58:02.179Z,16.30
2018-06-27T05:59:01.979Z,16.29
2018-06-27T06:00:02.952Z,16.35
2018-06-27T06:01:01.830Z,16.38
2018-06-27T06:02:01.777Z,16.34
2018-06-27T06:03:01.680Z,16.33
2018-06-27T06:04:01.689Z,16.41
2018-06-27T06:05:01.530Z,16.33
2018-06-27T06:06:01.497Z,16.42
2018-06-27T06:07:01.382Z,16.47
2018-06-27T06:08:01.411Z,16.45
2018-06-27T06:09:01.230Z,16.42
2018-06-27T06:10:01.261Z,16.45
2018-06-27T06:11:01.082Z,16.42
2018-06-27T06:12:01.027Z,16.60
2018-06-27T06:13:00.931Z,16.66
2018-06-27T06:14:00.938Z,16.65
2018-06-27T06:15:00.810Z,16.84
2018-06-27T06:16:00.744Z,16.88
2018-06-27T06:17:00.636Z,16.90
2018-06-27T06:18:00.651Z,16.93
2018-06-27T06:19:00.487Z,17.03
2018-06-27T06:20:00.465Z,17.08
2018-06-27T06:21:00.338Z,17.14
2018-06-27T06:22:00.376Z,17.21
2018-06-27T06:23:00.188Z,17.17
2018-06-27T06:24:00.185Z,17.35
2018-06-27T06:25:00.056Z,17.25
2018-06-27T06:25:59.994Z,17.30
2018-06-27T06:26:59.893Z,17.32
2018-06-27T06:27:59.906Z,17.53
2018-06-27T06:28:59.743Z,17.57
2018-06-27T06:29:59.712Z,17.66
2018-06-27T06:30:59.596Z,17.57
2018-06-27T06:31:59.626Z,17.70
2018-06-27T06:32:59.452Z,17.66
2018-06-27T06:33:59.433Z,17.63
2018-06-27T06:34:59.300Z,17.71
2018-06-27T06:35:59.345Z,17.66
2018-06-27T06:36:59.150Z,17.76
2018-06-27T06:37:59.153Z,17.81
2018-06-27T06:38:59.004Z,17.87
2018-06-27T06:39:58.962Z,17.95
2018-06-27T06:40:58.860Z,17.92
2018-06-27T06:41:58.870Z,17.96
2018-06-27T06:42:58.705Z,18.00
2018-06-27T06:43:58.646Z,18.10
2018-06-27T06:44:58.560Z,18.19
2018-06-27T06:45:58.506Z,18.19
2018-06-27T06:46:58.416Z,18.18
2018-06-27T06:47:58.354Z,18.22
2018-06-27T06:48:58.263Z,18.27
2018-06-27T06:49:58.207Z,18.28
2018-06-27T06:50:58.122Z,18.43
2018-06-27T06:51:58.060Z,18.44
2018-06-27T06:52:57.966Z,18.55
2018-06-27T06:53:57.910Z,18.58
2018-06-27T06:54:57.827Z,18.58
2018-06-27T06:55:57.758Z,18.57
2018-06-27T06:56:57.685Z,18.71
2018-06-27T06:57:57.612Z,18.61
2018-06-27T06:58:57.533Z,18.65
2018-06-27T06:59:57.468Z,18.73
2018-06-27T07:00:57.385Z,18.77
2018-06-27T07:01:57.321Z,18.80
2018-06-27T07:02:57.239Z,18.92
2018-06-27T07:03:57.173Z,19.01
2018-06-27T07:04:57.149Z,19.01
2018-06-27T07:05:57.029Z,19.08
2018-06-27T07:06:56.954Z,19.17
2018-06-27T07:07:56.885Z,19.28
2018-06-27T07:08:56.804Z,19.28
2018-06-27T07:09:56.733Z,19.42
2018-06-27T07:10:56.707Z,19.33
2018-06-27T07:11:56.590Z,19.45
2018-06-27T07:12:56.510Z,19.50
2018-06-27T07:13:56.442Z,19.54
2018-06-27T07:14:56.362Z,19.48
2018-06-27T07:15:56.302Z,19.53
2018-06-27T07:16:56.214Z,19.55
2018-06-27T07:17:56.186Z,19.61
2018-06-27T07:18:56.075Z,19.78
2018-06-27T07:19:56.003Z,19.79
2018-06-27T07:20:55.925Z,19.88
2018-06-27T07:21:55.863Z,19.97
2018-06-27T07:22:55.783Z,20.03
2018-06-27T07:23:55.719Z,20.20
2018-06-27T07:24:55.641Z,20.27
2018-06-27T07:25:55.576Z,20.31
2018-06-27T07:26:55.493Z,20.50
2018-06-27T07:27:55.436Z,20.43
2018-06-27T07:28:55.347Z,20.61
2018-06-27T07:29:55.280Z,20.66
2018-06-27T07:30:55.205Z,20.80
2018-06-27T07:31:55.212Z,20.82
2018-06-27T07:32:55.060Z,20.89
2018-06-27T07:33:55.023Z,21.02
2018-06-27T07:34:54.915Z,21.04
2018-06-27T07:35:54.965Z,21.16
2018-06-27T07:36:54.775Z,21.17
2018-06-27T07:37:54.743Z,21.26
2018-06-27T07:38:54.624Z,21.41
2018-06-27T07:39:54.648Z,21.53
2018-06-27T07:40:54.486Z,21.64
2018-06-27T07:41:54.465Z,21.74
2018-06-27T07:42:54.344Z,21.84
2018-06-27T07:43:54.371Z,21.98
2018-06-27T07:44:54.203Z,22.01
2018-06-27T07:45:54.182Z,22.05
2018-06-27T07:46:54.058Z,22.15
2018-06-27T07:47:54.091Z,22.15
2018-06-27T07:48:53.915Z,22.17
2018-06-27T07:49:53.965Z,22.17
2018-06-27T07:50:53.774Z,22.32
2018-06-27T07:51:53.809Z,22.41
2018-06-27T07:52:53.635Z,22.37
2018-06-27T07:53:53.623Z,22.42
2018-06-27T07:54:53.496Z,22.39
2018-06-27T07:55:53.533Z,22.31
2018-06-27T07:56:53.347Z,22.30
2018-06-27T07:57:54.366Z,22.17
2018-06-27T07:58:53.211Z,22.35
2018-06-27T07:59:58.065Z,22.42
2018-06-27T08:00:53.072Z,22.62
2018-06-27T08:01:54.090Z,22.71
2018-06-27T08:02:52.928Z,22.86
2018-06-27T08:03:54.920Z,22.96
2018-06-27T08:04:52.785Z,22.92
2018-06-27T08:05:54.831Z,22.83
2018-06-27T08:06:52.645Z,22.68
2018-06-27T08:07:52.695Z,22.57
2018-06-27T08:08:52.507Z,22.38
2018-06-27T08:09:52.494Z,22.47
2018-06-27T08:10:52.368Z,22.37
2018-06-27T08:11:52.411Z,22.34
2018-06-27T08:12:52.227Z,22.15
2018-06-27T08:13:52.219Z,22.02
2018-06-27T08:14:52.087Z,21.91
2018-06-27T08:15:52.130Z,21.92
2018-06-27T08:16:51.944Z,21.97
2018-06-27T08:17:52.018Z,21.95
2018-06-27T08:18:51.807Z,22.20
2018-06-27T08:19:51.849Z,22.34
2018-06-27T08:20:51.665Z,22.42
2018-06-27T08:21:51.659Z,22.57
2018-06-27T08:22:51.525Z,22.83
2018-06-27T08:23:51.568Z,22.94
2018-06-27T08:24:51.382Z,22.96
2018-06-27T08:25:51.374Z,22.92
2018-06-27T08:26:51.248Z,22.89
2018-06-27T08:27:51.288Z,22.92
2018-06-27T08:28:51.110Z,23.14
2018-06-27T08:29:51.097Z,23.15
2018-06-27T08:30:50.964Z,23.23
2018-06-27T08:31:51.007Z,23.26
2018-06-27T08:32:50.826Z,23.42
2018-06-27T08:33:50.819Z,23.45
2018-06-27T08:34:50.689Z,23.48
2018-06-27T08:35:50.726Z,23.63
2018-06-27T08:36:50.549Z,23.70
2018-06-27T08:37:50.537Z,23.85
2018-06-27T08:38:50.410Z,24.08
2018-06-27T08:39:50.449Z,24.17
2018-06-27T08:40:50.272Z,24.32
2018-06-27T08:41:50.257Z,24.34
2018-06-27T08:42:50.133Z,24.40
2018-06-27T08:43:50.169Z,24.44
2018-06-27T08:44:49.997Z,24.42
2018-06-27T08:45:49.974Z,24.15
2018-06-27T08:46:49.858Z,24.25
2018-06-27T08:47:49.884Z,24.30
2018-06-27T08:48:49.720Z,24.41
2018-06-27T08:49:49.695Z,24.38
2018-06-27T08:50:49.586Z,24.53
2018-06-27T08:51:49.604Z,24.57
2018-06-27T08:52:49.447Z,24.54
2018-06-27T08:53:49.410Z,24.76
2018-06-27T08:54:49.313Z,24.82
2018-06-27T08:55:49.322Z,24.79
2018-06-27T08:56:49.174Z,24.97
2018-06-27T08:57:49.144Z,24.90
2018-06-27T08:58:49.089Z,25.00
2018-06-27T08:59:49.044Z,24.64
2018-06-27T09:00:48.906Z,24.48
2018-06-27T09:01:48.853Z,24.41
2018-06-27T09:02:48.769Z,24.16
2018-06-27T09:03:48.763Z,24.11
2018-06-27T09:04:48.627Z,23.87
2018-06-27T09:05:48.674Z,23.75
2018-06-27T09:06:48.493Z,23.56
2018-06-27T09:07:48.522Z,23.53
2018-06-27T09:08:48.356Z,23.64
2018-06-27T09:09:48.396Z,23.79
2018-06-27T09:10:48.219Z,23.90
2018-06-27T09:11:48.199Z,23.98
2018-06-27T09:12:48.086Z,23.83
2018-06-27T09:13:48.114Z,23.95
2018-06-27T09:14:47.950Z,24.05
2018-06-27T09:15:47.926Z,23.82
2018-06-27T09:16:47.805Z,23.95
2018-06-27T09:17:47.829Z,24.01
2018-06-27T09:18:47.674Z,23.92
2018-06-27T09:19:47.643Z,23.87
2018-06-27T09:20:47.541Z,23.75
2018-06-27T09:21:47.553Z,23.67
2018-06-27T09:22:47.402Z,23.78
2018-06-27T09:23:47.362Z,23.87
2018-06-27T09:24:47.264Z,23.95
2018-06-27T09:25:47.269Z,24.04
2018-06-27T09:26:47.133Z,24.26
2018-06-27T09:27:47.085Z,24.44
2018-06-27T09:28:46.992Z,24.47
2018-06-27T09:29:47.511Z,24.64
2018-06-27T09:30:46.856Z,24.67
2018-06-27T09:31:46.800Z,24.71
2018-06-27T09:32:46.720Z,24.88
2018-06-27T09:33:46.656Z,24.94
2018-06-27T09:34:46.587Z,25.00
2018-06-27T09:35:46.513Z,25.08
2018-06-27T09:36:46.447Z,25.17
2018-06-27T09:37:46.387Z,25.16
2018-06-27T09:38:46.313Z,25.27
2018-06-27T09:39:46.246Z,25.30
2018-06-27T09:40:46.181Z,25.28
2018-06-27T09:41:46.108Z,25.41
2018-06-27T09:42:46.043Z,25.42
2018-06-27T09:43:45.973Z,25.38
2018-06-27T09:44:45.907Z,25.46
2018-06-27T09:45:45.874Z,25.41
2018-06-27T09:46:45.772Z,25.45
2018-06-27T09:47:45.782Z,25.56
2018-06-27T09:48:45.640Z,25.56
2018-06-27T09:49:45.592Z,25.55
2018-06-27T09:50:45.509Z,25.53
2018-06-27T09:51:45.500Z,25.41
2018-06-27T09:52:45.365Z,25.46
2018-06-27T09:53:45.410Z,25.53
2018-06-27T09:54:45.235Z,25.42
2018-06-27T09:55:45.224Z,25.38
2018-06-27T09:56:45.154Z,25.32
2018-06-27T09:57:45.133Z,25.16
2018-06-27T09:58:44.967Z,25.02
2018-06-27T09:59:44.941Z,25.01
2018-06-27T10:00:44.831Z,24.88
2018-06-27T10:01:44.851Z,24.67
2018-06-27T10:02:44.702Z,24.56
2018-06-27T10:03:44.658Z,24.50
2018-06-27T10:04:44.564Z,24.59
2018-06-27T10:05:44.571Z,24.66
2018-06-27T10:06:44.430Z,24.82
2018-06-27T10:07:44.449Z,25.01
2018-06-27T10:08:44.290Z,25.10
2018-06-27T10:09:44.290Z,25.15
2018-06-27T10:10:44.164Z,25.20
2018-06-27T10:11:44.197Z,25.23
2018-06-27T10:12:44.028Z,25.20
2018-06-27T10:13:44.010Z,25.09
2018-06-27T10:14:43.899Z,25.13
2018-06-27T10:15:43.928Z,25.28
2018-06-27T10:16:43.758Z,25.31
2018-06-27T10:17:43.729Z,25.32
2018-06-27T10:18:43.629Z,25.38
2018-06-27T10:19:43.643Z,25.41
2018-06-27T10:20:43.491Z,25.41
2018-06-27T10:21:43.450Z,25.46
2018-06-27T10:22:43.405Z,25.34
2018-06-27T10:23:43.360Z,25.31
2018-06-27T10:24:43.223Z,25.34
2018-06-27T10:25:43.272Z,25.23
2018-06-27T10:26:43.096Z,25.27
2018-06-27T10:27:43.078Z,25.27
2018-06-27T10:28:42.956Z,25.38
2018-06-27T10:29:42.991Z,25.41
2018-06-27T10:30:42.830Z,25.34
2018-06-27T10:31:42.800Z,25.27
2018-06-27T10:32:42.687Z,25.13
2018-06-27T10:33:42.712Z,25.22
2018-06-27T10:34:42.558Z,25.23
2018-06-27T10:35:42.545Z,25.38
2018-06-27T10:36:42.435Z,25.32
2018-06-27T10:37:42.450Z,25.46
2018-06-27T10:38:42.299Z,25.46
2018-06-27T10:39:42.343Z,25.68
2018-06-27T10:40:42.154Z,25.74
2018-06-27T10:41:42.150Z,25.67
2018-06-27T10:42:42.024Z,25.57
2018-06-27T10:43:42.061Z,25.42
2018-06-27T10:44:41.893Z,25.09
2018-06-27T10:45:41.874Z,25.00
2018-06-27T10:46:41.789Z,24.94
2018-06-27T10:47:41.700Z,24.91
2018-06-27T10:48:41.632Z,24.98
2018-06-27T10:49:41.560Z,24.76
2018-06-27T10:50:41.595Z,24.67
2018-06-27T10:51:41.434Z,24.56
2018-06-27T10:52:41.408Z,24.52
2018-06-27T10:53:41.291Z,24.54
2018-06-27T10:54:41.315Z,24.59
2018-06-27T10:55:42.083Z,24.66
2018-06-27T10:56:41.090Z,24.82
2018-06-27T10:57:41.131Z,25.02
2018-06-27T10:58:41.600Z,25.27
2018-06-27T10:59:42.441Z,25.52
2018-06-27T11:00:40.822Z,25.59
2018-06-27T11:01:40.769Z,25.62
2018-06-27T11:02:40.694Z,25.78
2018-06-27T11:03:40.632Z,25.79
2018-06-27T11:04:40.560Z,25.62
2018-06-27T11:05:40.570Z,25.41
2018-06-27T11:06:40.429Z,25.17
2018-06-27T11:07:40.380Z,24.83
2018-06-27T11:08:40.306Z,24.93
2018-06-27T11:09:40.291Z,24.91
2018-06-27T11:10:40.170Z,24.91
2018-06-27T11:11:40.101Z,24.94
2018-06-27T11:12:40.031Z,25.01
2018-06-27T11:13:39.977Z,24.95
2018-06-27T11:14:39.896Z,25.08
2018-06-27T11:15:39.836Z,25.13
2018-06-27T11:16:39.763Z,25.27
2018-06-27T11:17:39.730Z,25.55
2018-06-27T11:18:39.632Z,25.65
2018-06-27T11:19:39.642Z,25.60
2018-06-27T11:20:39.501Z,25.55
2018-06-27T11:21:39.449Z,25.45
2018-06-27T11:22:39.369Z,25.45
2018-06-27T11:23:39.361Z,25.53
2018-06-27T11:24:39.231Z,25.59
2018-06-27T11:25:39.272Z,25.60
2018-06-27T11:26:39.101Z,25.62
2018-06-27T11:27:39.082Z,25.65
2018-06-27T11:28:38.962Z,25.70
2018-06-27T11:29:39.002Z,25.65
2018-06-27T11:30:38.834Z,25.78
2018-06-27T11:31:38.804Z,25.77
2018-06-27T11:32:38.714Z,25.93
2018-06-27T11:33:38.712Z,26.05
2018-06-27T11:34:38.577Z,26.09
2018-06-27T11:35:38.522Z,26.24
2018-06-27T11:36:38.435Z,26.35
2018-06-27T11:37:38.436Z,26.61
2018-06-27T11:38:38.384Z,26.72
2018-06-27T11:39:38.343Z,26.86
2018-06-27T11:40:38.172Z,26.90
2018-06-27T11:41:38.154Z,27.04
2018-06-27T11:42:38.042Z,26.77
2018-06-27T11:43:38.060Z,26.84
2018-06-27T11:44:37.979Z,26.80
2018-06-27T11:45:37.873Z,26.71
2018-06-27T11:46:37.775Z,26.69
2018-06-27T11:47:37.784Z,26.69
2018-06-27T11:48:37.649Z,26.71
2018-06-27T11:49:37.699Z,26.97
2018-06-27T11:50:37.514Z,26.99
2018-06-27T11:51:37.508Z,26.84
2018-06-27T11:52:37.381Z,26.82
2018-06-27T11:53:37.413Z,26.65
2018-06-27T11:54:37.251Z,26.50
2018-06-27T11:55:37.220Z,26.30
2018-06-27T11:56:37.121Z,26.16
2018-06-27T11:57:37.133Z,25.86
2018-06-27T11:58:36.992Z,25.56
2018-06-27T11:59:36.941Z,25.42
2018-06-27T12:00:36.856Z,25.25
2018-06-27T12:01:36.800Z,25.10
2018-06-27T12:02:36.725Z,25.10
2018-06-27T12:03:36.668Z,25.12
2018-06-27T12:04:36.591Z,25.13
2018-06-27T12:05:36.572Z,25.15
2018-06-27T12:06:36.462Z,25.04
2018-06-27T12:07:36.484Z,24.97
2018-06-27T12:08:36.327Z,24.88
2018-06-27T12:09:36.292Z,24.93
2018-06-27T12:10:36.196Z,24.76
2018-06-27T12:11:36.203Z,24.90
2018-06-27T12:12:36.065Z,24.78
2018-06-27T12:13:36.116Z,24.94
2018-06-27T12:14:35.932Z,24.98
2018-06-27T12:15:35.923Z,25.01
2018-06-27T12:16:35.796Z,25.13
2018-06-27T12:17:35.833Z,25.13
2018-06-27T12:18:35.668Z,25.30
2018-06-27T12:19:35.646Z,25.41
2018-06-27T12:20:35.530Z,25.62
2018-06-27T12:21:35.472Z,25.77
2018-06-27T12:22:35.401Z,25.86
2018-06-27T12:23:35.362Z,26.05
2018-06-27T12:24:35.267Z,26.05
2018-06-27T12:25:35.271Z,26.18
2018-06-27T12:26:35.136Z,26.18
2018-06-27T12:27:35.185Z,26.34
2018-06-27T12:28:35.004Z,26.23
2018-06-27T12:29:34.991Z,26.24
2018-06-27T12:30:34.867Z,26.38
2018-06-27T12:31:34.902Z,26.45
2018-06-27T12:32:34.798Z,26.35
2018-06-27T12:33:34.709Z,26.20
2018-06-27T12:34:34.604Z,25.94
2018-06-27T12:35:34.620Z,25.79
2018-06-27T12:36:34.473Z,25.55
2018-06-27T12:37:34.429Z,25.30
2018-06-27T12:38:34.390Z,25.19
2018-06-27T12:39:34.342Z,25.09
2018-06-27T12:40:34.214Z,24.88
2018-06-27T12:41:34.251Z,24.75
2018-06-27T12:42:34.078Z,24.62
2018-06-27T12:43:34.063Z,24.52
2018-06-27T12:44:33.946Z,24.40
2018-06-27T12:45:33.974Z,24.17
2018-06-27T12:46:33.813Z,24.19
2018-06-27T12:47:33.783Z,24.07
2018-06-27T12:48:33.683Z,23.98
2018-06-27T12:49:33.695Z,23.85
2018-06-27T12:50:33.552Z,23.78
2018-06-27T12:51:33.491Z,23.74